Time;durP1;ratioP1;P1;durP2;ratioP2;P2;SDS_P1;SDS_P2;PMS_P1;PMS_P2;Temp;Humidity;BMP_temperature;BMP_pressure;BME280_temperature;BME280_humidity;BME280_pressure;Samples;Min_cycle;Max_cycle;Signal;HPM_P1;HPM_P2
2021/12/17 00:00:01;;;;;;;358.52;102.18;;;;;;;5.74;64.30;100356.91;338707;29;1850;-71
2021/12/17 00:00:17;;;;;;;360.83;106.40;;;;;;;5.73;63.84;100349.13;339832;28;1569;-71
2021/12/17 00:00:28;;;;;;;365.40;111.07;;;;;;;5.74;63.81;100348.25;338754;29;992;-71
2021/12/17 00:00:44;;;;;;;366.97;111.40;;;;;;;5.75;64.11;100349.97;339593;29;1300;-72
2021/12/17 00:00:59;;;;;;;364.75;107.15;;;;;;;5.74;64.20;100346.53;337388;29;921;-71
2021/12/17 00:01:10;;;;;;;365.27;108.20;;;;;;;5.76;64.22;100349.09;338625;29;990;-71
2021/12/17 00:01:36;;;;;;;365.40;109.07;;;;;;;5.76;64.00;100349.97;337396;29;1600;-71
2021/12/17 00:03:19;;;;;;;363.58;106.05;;;;;;;5.71;63.98;100340.50;342534;28;1605;-70
2021/12/17 00:03:35;;;;;;;363.20;107.25;;;;;;;5.69;64.04;100341.38;341016;28;1512;-70
2021/12/17 00:03:39;;;;;;;361.83;107.28;;;;;;;5.71;64.26;100345.69;341679;28;768;-70
2021/12/17 00:03:49;;;;;;;362.73;106.07;;;;;;;5.67;63.72;100343.13;339985;28;2180;-71
2021/12/17 00:04:04;;;;;;;360.65;104.10;;;;;;;5.66;64.17;100346.59;341384;28;2001;-70
2021/12/17 00:04:37;;;;;;;360.08;102.88;;;;;;;5.68;64.08;100338.78;338636;28;1321;-70
2021/12/17 00:05:01;;;;;;;361.58;107.15;;;;;;;5.71;64.29;100340.50;341983;28;1964;-70
2021/12/17 00:05:14;;;;;;;361.88;107.95;;;;;;;5.69;63.93;100338.78;340247;28;1331;-70
2021/12/17 00:05:42;;;;;;;362.27;108.55;;;;;;;5.71;64.24;100337.91;340031;29;1522;-70
2021/12/17 00:06:06;;;;;;;361.13;106.63;;;;;;;5.67;63.92;100335.31;338494;29;1394;-71
2021/12/17 00:06:47;;;;;;;360.58;107.10;;;;;;;5.65;63.96;100337.06;339467;28;2085;-71
2021/12/17 00:06:58;;;;;;;361.50;110.88;;;;;;;5.65;64.38;100339.66;339973;29;909;-70
2021/12/17 00:07:13;;;;;;;361.95;108.10;;;;;;;5.66;63.98;100340.53;339052;29;2178;-70
2021/12/17 00:07:24;;;;;;;363.58;105.03;;;;;;;5.67;64.38;100334.47;338854;29;921;-70
2021/12/17 00:07:35;;;;;;;363.10;103.03;;;;;;;5.66;64.19;100341.41;341608;28;2059;-71
2021/12/17 00:07:45;;;;;;;360.57;103.23;;;;;;;5.64;63.83;100337.94;341474;28;1926;-71
2021/12/17 00:07:56;;;;;;;360.63;103.93;;;;;;;5.66;64.24;100345.72;339953;29;905;-71
2021/12/17 00:08:06;;;;;;;361.50;105.90;;;;;;;5.66;64.13;100340.53;337257;29;2172;-71
2021/12/17 00:08:18;;;;;;;361.58;106.70;;;;;;;5.67;63.75;100343.13;338649;29;2022;-71
2021/12/17 00:08:28;;;;;;;361.83;106.53;;;;;;;5.67;63.81;100345.72;338666;29;1053;-71
2021/12/17 00:08:41;;;;;;;361.40;106.67;;;;;;;5.67;64.05;100347.44;337481;29;1568;-70
2021/12/17 00:08:53;;;;;;;362.52;108.43;;;;;;;5.68;64.05;100343.97;342175;28;2035;-70
2021/12/17 00:09:03;;;;;;;363.88;108.96;;;;;;;5.67;64.12;100345.72;342453;28;2051;-70
2021/12/17 00:09:13;;;;;;;364.30;108.97;;;;;;;5.69;64.37;100346.56;341287;28;1716;-70
2021/12/17 00:09:24;;;;;;;365.10;110.53;;;;;;;5.71;64.23;100348.28;341689;28;1578;-70
2021/12/17 00:09:34;;;;;;;364.27;110.60;;;;;;;5.71;63.86;100343.94;340181;28;1434;-70
2021/12/17 00:09:45;;;;;;;363.17;109.47;;;;;;;5.73;64.25;100346.53;341664;28;1854;-70
2021/12/17 00:09:57;;;;;;;361.38;107.22;;;;;;;5.73;63.90;100342.19;341077;28;1450;-71
2021/12/17 00:10:13;;;;;;;360.90;105.88;;;;;;;5.74;64.32;100345.66;340538;28;1346;-71
2021/12/17 00:10:23;;;;;;;362.65;107.25;;;;;;;5.76;64.38;100346.50;339696;28;1697;-71
2021/12/17 00:10:34;;;;;;;361.85;106.22;;;;;;;5.75;63.98;100343.03;338956;29;1742;-71
2021/12/17 00:10:45;;;;;;;362.47;108.37;;;;;;;5.77;64.03;100343.91;338687;29;1828;-71
2021/12/17 00:10:56;;;;;;;361.05;106.88;;;;;;;5.79;64.10;100349.06;337424;29;1301;-71
2021/12/17 00:11:07;;;;;;;360.40;104.77;;;;;;;5.77;63.75;100343.91;338347;29;1597;-71
2021/12/17 00:11:18;;;;;;;359.95;101.95;;;;;;;5.75;64.15;100349.97;339837;28;2115;-70
2021/12/17 00:11:29;;;;;;;359.10;99.75;;;;;;;5.76;63.93;100349.09;340118;29;1379;-70
2021/12/17 00:11:39;;;;;;;361.50;104.28;;;;;;;5.76;63.88;100351.69;341061;28;1358;-70
2021/12/17 00:11:49;;;;;;;361.20;105.77;;;;;;;5.76;64.06;100344.78;341124;28;1830;-70
2021/12/17 00:12:00;;;;;;;362.70;108.80;;;;;;;5.74;63.93;100345.66;339695;28;1650;-70
2021/12/17 00:12:12;;;;;;;361.57;108.30;;;;;;;5.73;64.05;100349.13;337337;28;1370;-70
2021/12/17 00:12:24;;;;;;;362.20;109.25;;;;;;;5.70;63.82;100342.22;338321;29;1674;-70
2021/12/17 00:12:34;;;;;;;362.38;108.40;;;;;;;5.71;64.36;100351.75;341308;28;1746;-70
2021/12/17 00:12:45;;;;;;;363.63;109.22;;;;;;;5.68;64.18;100344.84;339988;29;2102;-71
2021/12/17 00:12:56;;;;;;;364.45;110.75;;;;;;;5.71;64.14;100348.28;340082;29;894;-71
2021/12/17 00:13:06;;;;;;;362.97;108.03;;;;;;;5.70;64.32;100350.03;336150;29;2079;-71
2021/12/17 00:13:17;;;;;;;362.17;106.78;;;;;;;5.69;64.21;100349.16;337418;29;1840;-71
2021/12/17 00:13:27;;;;;;;360.40;105.20;;;;;;;5.69;63.78;100351.75;341262;28;870;-71
2021/12/17 00:13:38;;;;;;;362.53;106.87;;;;;;;5.69;64.10;100341.38;340203;28;2018;-70
2021/12/17 00:13:48;;;;;;;362.70;106.00;;;;;;;5.69;64.03;100343.97;339953;29;2130;-70
2021/12/17 00:13:59;;;;;;;363.43;105.57;;;;;;;5.72;64.13;100344.81;337367;29;888;-70
2021/12/17 00:14:11;;;;;;;361.58;104.90;;;;;;;5.73;64.37;100346.53;338565;29;2218;-70
2021/12/17 00:14:27;;;;;;;361.40;105.95;;;;;;;5.74;63.92;100348.25;337430;29;934;-70
2021/12/17 00:14:39;;;;;;;361.85;106.25;;;;;;;5.73;64.17;100350.00;335537;29;1979;-70
2021/12/17 00:14:49;;;;;;;362.42;106.55;;;;;;;5.73;63.77;100346.53;337670;29;1463;-70
2021/12/17 00:15:00;;;;;;;364.17;107.60;;;;;;;5.74;63.98;100348.25;339946;29;923;-71
2021/12/17 00:15:10;;;;;;;364.33;106.13;;;;;;;5.74;63.96;100348.25;341134;28;1517;-71
2021/12/17 00:15:20;;;;;;;364.23;106.55;;;;;;;5.74;64.16;100340.47;340090;28;1510;-71
2021/12/17 00:15:31;;;;;;;363.23;107.20;;;;;;;5.74;64.30;100349.13;342578;28;2110;-71
2021/12/17 00:15:43;;;;;;;363.55;108.95;;;;;;;5.75;64.08;100347.38;343933;28;964;-71
2021/12/17 00:15:53;;;;;;;364.17;110.00;;;;;;;5.77;63.74;100348.22;340232;28;1261;-71
2021/12/17 00:16:13;;;;;;;365.63;112.00;;;;;;;5.76;63.67;100342.16;337201;29;1957;-71
2021/12/17 00:16:27;;;;;;;363.20;108.28;;;;;;;5.74;63.97;100341.31;337283;29;949;-70
2021/12/17 00:16:40;;;;;;;363.52;109.50;;;;;;;5.73;64.13;100342.19;339802;28;1293;-71
2021/12/17 00:16:51;;;;;;;363.02;108.95;;;;;;;5.74;63.91;100335.28;338980;28;1511;-70
2021/12/17 00:17:04;;;;;;;361.48;106.82;;;;;;;5.75;63.88;100339.59;337159;29;1747;-71
2021/12/17 00:17:19;;;;;;;363.45;108.88;;;;;;;5.76;63.84;100341.31;337420;29;933;-70
2021/12/17 00:17:35;;;;;;;364.88;110.22;;;;;;;5.75;64.07;100330.06;335868;29;1609;-71
2021/12/17 00:17:55;;;;;;;363.73;108.18;;;;;;;5.73;63.58;100334.41;337632;29;1013;-72
2021/12/17 00:18:14;;;;;;;363.80;110.25;;;;;;;5.71;63.94;100333.56;339894;28;1247;-70
2021/12/17 00:18:42;;;;;;;365.08;111.15;;;;;;;5.71;63.89;100325.78;337138;28;2189;-71
2021/12/17 00:19:07;;;;;;;361.45;105.10;;;;;;;5.67;63.81;100337.06;341203;28;1376;-70
2021/12/17 00:43:59;;;;;;;360.83;104.78;;;;;;;5.68;64.22;100331.84;341243;28;770;-71
2021/12/17 00:44:09;;;;;;;358.76;105.46;;;;;;;5.64;64.39;100330.16;339142;29;1330;-71
2021/12/17 00:48:23;;;;;;;362.48;107.93;;;;;;;5.61;65.22;100330.22;338449;29;2030;-71
2021/12/17 00:48:36;;;;;;;364.13;108.07;;;;;;;5.61;64.86;100332.81;339653;29;1068;-71
2021/12/17 00:48:46;;;;;;;363.75;105.68;;;;;;;5.62;64.79;100334.53;337502;29;1399;-72
2021/12/17 00:48:56;;;;;;;364.08;105.43;;;;;;;5.61;64.56;100327.63;338397;29;886;-70
2021/12/17 00:49:07;;;;;;;362.87;106.43;;;;;;;5.58;64.56;100319.88;342220;28;1555;-70
2021/12/17 00:49:18;;;;;;;363.43;107.10;;;;;;;5.59;64.65;100334.56;340732;28;983;-70
2021/12/17 00:49:34;;;;;;;362.40;107.00;;;;;;;5.57;64.73;100331.13;339525;28;1357;-70
2021/12/17 00:51:55;;;;;;;360.95;105.68;;;;;;;5.58;64.67;100332.84;339475;28;1900;-71
2021/12/17 00:52:15;;;;;;;359.38;104.10;;;;;;;5.57;64.91;100325.94;340639;28;1675;-71
2021/12/17 00:52:19;;;;;;;361.63;105.72;;;;;;;5.57;64.85;100331.13;339676;28;1798;-71
2021/12/17 00:52:33;;;;;;;362.02;106.70;;;;;;;5.57;64.91;100325.94;339739;29;1368;-71
2021/12/17 00:52:43;;;;;;;361.13;106.43;;;;;;;5.57;64.93;100325.94;338211;29;1409;-71
2021/12/17 00:52:54;;;;;;;360.73;106.07;;;;;;;5.57;64.92;100336.31;337361;29;1484;-72
2021/12/17 00:53:06;;;;;;;361.02;105.68;;;;;;;5.55;64.50;100330.28;336702;29;2069;-72
2021/12/17 00:53:20;;;;;;;361.92;105.80;;;;;;;5.56;64.71;100333.72;338633;29;890;-71
2021/12/17 00:53:31;;;;;;;363.77;107.70;;;;;;;5.60;64.80;100332.84;334749;29;882;-72
2021/12/17 00:53:41;;;;;;;362.93;108.33;;;;;;;5.60;64.71;100333.69;339106;28;2034;-72
2021/12/17 00:53:52;;;;;;;363.75;109.30;;;;;;;5.60;64.78;100331.09;340462;28;1471;-71
2021/12/17 00:54:07;;;;;;;362.13;107.13;;;;;;;5.61;64.82;100332.81;339793;29;859;-71
2021/12/17 00:54:22;;;;;;;361.85;105.32;;;;;;;5.61;64.96;100326.75;338656;29;992;-71
2021/12/17 00:54:40;;;;;;;363.08;103.82;;;;;;;5.62;64.84;100333.69;338318;29;1509;-71
2021/12/17 00:54:50;;;;;;;362.63;103.57;;;;;;;5.63;64.88;100331.03;342067;28;1733;-72
2021/12/17 00:55:02;;;;;;;360.10;103.88;;;;;;;5.63;64.72;100330.22;341307;28;976;-72
2021/12/17 00:55:12;;;;;;;362.92;106.82;;;;;;;5.62;64.89;100337.13;341013;28;1971;-72
2021/12/17 00:55:23;;;;;;;361.90;106.65;;;;;;;5.62;64.90;100324.16;337486;29;1872;-72
2021/12/17 00:55:33;;;;;;;362.33;107.03;;;;;;;5.60;64.89;100325.03;338675;29;929;-72
2021/12/17 00:55:44;;;;;;;360.85;105.53;;;;;;;5.62;64.60;100329.34;340806;28;2018;-72
2021/12/17 00:55:54;;;;;;;361.03;105.07;;;;;;;5.62;64.51;100333.69;339779;29;1277;-71
2021/12/17 00:56:04;;;;;;;361.48;105.93;;;;;;;5.61;64.54;100327.63;339640;29;1276;-71
2021/12/17 00:56:15;;;;;;;361.70;105.33;;;;;;;5.61;64.58;100332.81;339874;28;1492;-72
2021/12/17 00:56:26;;;;;;;361.42;104.78;;;;;;;5.61;64.39;100332.81;339679;29;1787;-71
2021/12/17 00:56:36;;;;;;;361.35;103.93;;;;;;;5.61;64.49;100338.00;336913;29;2022;-71
2021/12/17 00:56:48;;;;;;;362.57;105.83;;;;;;;5.61;64.73;100332.81;338575;29;968;-71
2021/12/17 00:57:23;;;;;;;363.50;106.13;;;;;;;5.59;64.61;100334.56;339644;29;1517;-71
2021/12/17 00:57:41;;;;;;;362.77;107.80;;;;;;;5.63;64.69;100336.22;339902;29;949;-71
2021/12/17 00:57:51;;;;;;;363.15;109.57;;;;;;;5.64;64.65;100337.94;339586;28;2285;-71
2021/12/17 00:58:03;;;;;;;362.05;107.03;;;;;;;5.66;64.48;100335.34;338042;29;1526;-71
2021/12/17 00:58:14;;;;;;;361.33;105.15;;;;;;;5.66;64.49;100337.94;341152;28;1679;-71
2021/12/17 00:58:24;;;;;;;363.37;105.67;;;;;;;5.66;64.67;100341.41;341220;28;1304;-71
2021/12/17 00:58:34;;;;;;;361.77;106.10;;;;;;;5.66;64.55;100333.59;340676;28;1295;-71
2021/12/17 00:58:45;;;;;;;361.83;106.70;;;;;;;5.65;64.54;100333.63;342279;28;1426;-71
2021/12/17 00:58:55;;;;;;;361.77;106.50;;;;;;;5.65;64.50;100338.81;338025;28;1599;-72
2021/12/17 00:59:06;;;;;;;366.27;107.57;;;;;;;5.64;64.56;100332.75;340549;28;2160;-71
2021/12/17 00:59:16;;;;;;;367.27;106.95;;;;;;;5.65;64.66;100338.81;342481;28;1576;-72
2021/12/17 00:59:27;;;;;;;368.10;109.13;;;;;;;5.65;64.56;100338.81;341625;28;2006;-72
2021/12/17 00:59:37;;;;;;;365.85;110.88;;;;;;;5.64;64.43;100337.94;340795;28;2151;-71
2021/12/17 00:59:49;;;;;;;364.77;111.80;;;;;;;5.63;64.69;100335.41;337045;29;1378;-71
2021/12/17 00:59:59;;;;;;;361.98;107.65;;;;;;;5.62;64.42;100334.53;339383;28;1951;-71
2021/12/17 01:00:20;;;;;;;360.27;105.27;;;;;;;5.62;64.35;100338.88;339487;29;1266;-71
2021/12/17 01:00:30;;;;;;;361.42;107.30;;;;;;;5.61;64.73;100332.81;340297;28;1383;-72
2021/12/17 01:00:41;;;;;;;363.27;107.10;;;;;;;5.63;64.67;100341.41;340038;28;1495;-71
2021/12/17 01:00:51;;;;;;;361.97;104.50;;;;;;;5.62;64.54;100334.53;338327;29;1328;-71
2021/12/17 01:01:01;;;;;;;360.73;103.57;;;;;;;5.64;64.42;100337.94;340592;28;2140;-71
2021/12/17 01:01:12;;;;;;;361.57;107.03;;;;;;;5.64;64.79;100337.94;338318;29;1703;-71
2021/12/17 01:01:22;;;;;;;364.35;110.00;;;;;;;5.65;64.27;100337.06;338695;29;1409;-71
2021/12/17 01:01:33;;;;;;;365.23;111.47;;;;;;;5.65;64.66;100334.47;338692;29;869;-71
2021/12/17 01:01:43;;;;;;;365.30;110.40;;;;;;;5.65;64.68;100337.06;343705;28;1359;-71
2021/12/17 01:01:55;;;;;;;365.53;111.70;;;;;;;5.63;64.47;100332.81;338604;28;1340;-71
2021/12/17 01:02:07;;;;;;;367.77;112.43;;;;;;;5.65;64.39;100336.22;335765;29;854;-71
2021/12/17 01:02:23;;;;;;;366.73;111.22;;;;;;;5.64;64.39;100337.94;338345;29;1820;-71
2021/12/17 01:02:34;;;;;;;365.58;111.80;;;;;;;5.61;64.61;100338.00;337347;29;854;-71
2021/12/17 01:02:45;;;;;;;364.43;110.70;;;;;;;5.62;64.50;100334.53;337794;29;1983;-71
2021/12/17 01:02:55;;;;;;;365.40;110.88;;;;;;;5.61;64.44;100337.16;338232;29;1213;-71
2021/12/17 01:03:05;;;;;;;363.95;108.72;;;;;;;5.63;64.37;100338.81;342138;28;1185;-71
2021/12/17 01:03:16;;;;;;;362.77;107.70;;;;;;;5.63;64.58;100336.22;343518;28;1631;-71
2021/12/17 01:03:26;;;;;;;361.57;106.57;;;;;;;5.63;64.52;100338.81;341797;28;1728;-71
2021/12/17 01:03:37;;;;;;;361.80;105.97;;;;;;;5.64;64.42;100348.34;338406;29;1366;-71
2021/12/17 01:03:48;;;;;;;361.00;104.93;;;;;;;5.65;64.50;100334.47;337122;29;1458;-71
2021/12/17 01:03:58;;;;;;;360.38;105.07;;;;;;;5.63;64.50;100336.22;337933;29;1454;-71
2021/12/17 01:04:08;;;;;;;361.98;107.55;;;;;;;5.65;64.81;100338.81;339395;29;1487;-71
2021/12/17 01:04:19;;;;;;;363.53;108.50;;;;;;;5.64;64.77;100337.94;338365;29;919;-71
2021/12/17 01:04:29;;;;;;;363.13;108.47;;;;;;;5.65;64.52;100344.00;338626;28;1824;-72
2021/12/17 01:04:42;;;;;;;362.00;106.37;;;;;;;5.66;64.36;100338.78;341832;28;1403;-71
2021/12/17 01:04:55;;;;;;;362.48;106.45;;;;;;;5.65;64.49;100334.47;341056;28;1900;-71
2021/12/17 01:05:11;;;;;;;363.17;107.18;;;;;;;5.65;64.65;100333.63;339585;28;924;-71
2021/12/17 01:05:25;;;;;;;363.85;107.38;;;;;;;5.64;64.67;100337.94;338318;28;1285;-71
2021/12/17 01:05:36;;;;;;;364.40;108.72;;;;;;;5.64;64.74;100331.91;338542;28;1699;-71
2021/12/17 01:05:46;;;;;;;363.77;108.93;;;;;;;5.62;64.66;100339.72;338167;29;1373;-71
2021/12/17 01:05:56;;;;;;;363.70;109.95;;;;;;;5.62;64.43;100350.13;337846;29;1466;-71
2021/12/17 01:06:07;;;;;;;362.17;107.43;;;;;;;5.62;64.53;100338.88;339873;29;899;-72
2021/12/17 01:06:17;;;;;;;360.95;106.30;;;;;;;5.63;64.53;100335.41;339599;29;1504;-71
2021/12/17 01:06:28;;;;;;;360.90;105.90;;;;;;;5.63;64.44;100338.81;339524;28;1579;-71
2021/12/17 01:06:38;;;;;;;362.25;107.70;;;;;;;5.62;64.18;100334.53;340022;29;1876;-71
2021/12/17 01:06:49;;;;;;;363.43;108.23;;;;;;;5.62;64.28;100329.34;339812;29;909;-72
2021/12/17 01:06:59;;;;;;;363.70;106.43;;;;;;;5.61;64.70;100332.81;338010;29;1429;-71
2021/12/17 01:07:10;;;;;;;360.87;103.23;;;;;;;5.63;64.19;100336.22;340571;28;1396;-72
2021/12/17 01:07:22;;;;;;;360.85;105.03;;;;;;;5.63;64.53;100336.22;339744;29;1428;-72
2021/12/17 01:07:34;;;;;;;360.65;106.28;;;;;;;5.64;64.32;100337.09;339176;28;1589;-71
2021/12/17 01:07:46;;;;;;;361.48;106.22;;;;;;;5.64;64.48;100335.34;339576;28;1395;-71
2021/12/17 01:07:57;;;;;;;361.75;104.75;;;;;;;5.64;64.16;100339.69;340820;28;1977;-71
2021/12/17 01:08:08;;;;;;;361.92;105.00;;;;;;;5.64;64.49;100334.50;338375;28;2090;-71
2021/12/17 01:08:18;;;;;;;362.10;103.60;;;;;;;5.65;64.41;100339.66;340436;28;1903;-71
2021/12/17 01:08:28;;;;;;;363.00;104.57;;;;;;;5.64;64.26;100337.94;338225;29;1405;-71
2021/12/17 01:08:39;;;;;;;363.73;105.77;;;;;;;5.65;64.30;100328.44;337229;29;1187;-71
2021/12/17 01:08:49;;;;;;;363.05;107.10;;;;;;;5.67;63.93;100334.47;338242;29;1396;-71
2021/12/17 01:09:00;;;;;;;360.63;105.77;;;;;;;5.66;64.52;100333.59;342203;28;1579;-71
2021/12/17 01:09:12;;;;;;;361.05;105.40;;;;;;;5.65;64.56;100334.47;339928;28;1416;-71
2021/12/17 01:09:24;;;;;;;363.90;107.05;;;;;;;5.65;64.37;100331.03;341048;28;1534;-71
2021/12/17 01:09:34;;;;;;;364.42;108.55;;;;;;;5.66;64.39;100335.34;336948;29;906;-71
2021/12/17 01:09:45;;;;;;;363.38;105.80;;;;;;;5.64;64.24;100330.16;339670;28;2069;-71
2021/12/17 01:09:56;;;;;;;363.57;106.10;;;;;;;5.63;64.22;100335.41;339996;28;1461;-71
2021/12/17 01:10:08;;;;;;;363.58;106.22;;;;;;;5.60;64.22;100328.50;341048;28;819;-71
2021/12/17 01:10:23;;;;;;;362.10;106.32;;;;;;;5.59;64.38;100325.91;339697;29;1012;-71
2021/12/17 01:10:51;;;;;;;363.20;106.82;;;;;;;5.57;64.46;100330.25;339615;28;1522;-71
2021/12/17 01:11:01;;;;;;;361.02;105.00;;;;;;;5.57;64.37;100325.94;339595;28;1033;-71
2021/12/17 01:11:12;;;;;;;360.77;105.33;;;;;;;5.58;64.16;100330.25;338207;28;1266;-71
2021/12/17 01:11:22;;;;;;;361.70;107.72;;;;;;;5.59;64.21;100328.50;341224;28;1400;-71
2021/12/17 01:11:33;;;;;;;362.77;109.70;;;;;;;5.58;64.37;100326.78;341829;28;1521;-71
2021/12/17 01:11:43;;;;;;;362.42;109.72;;;;;;;5.58;64.42;100325.06;341092;29;1392;-71
2021/12/17 01:11:55;;;;;;;363.10;109.17;;;;;;;5.60;64.65;100331.09;341224;29;854;-71
2021/12/17 01:12:06;;;;;;;364.42;109.25;;;;;;;5.60;64.64;100331.09;338514;29;939;-71
2021/12/17 01:12:17;;;;;;;363.95;107.55;;;;;;;5.61;64.59;100330.22;341283;28;2032;-71
2021/12/17 01:12:27;;;;;;;364.65;108.75;;;;;;;5.62;64.66;100329.34;341290;28;1498;-71
2021/12/17 01:12:37;;;;;;;364.07;109.40;;;;;;;5.63;64.23;100331.03;341038;29;1448;-71
2021/12/17 01:12:48;;;;;;;363.73;109.85;;;;;;;5.62;63.91;100326.75;338435;29;1301;-71
2021/12/17 01:12:58;;;;;;;364.27;108.57;;;;;;;5.59;64.48;100318.13;340423;29;1052;-71
2021/12/17 01:13:09;;;;;;;363.25;106.30;;;;;;;5.58;63.97;100322.47;341165;29;1052;-71
2021/12/17 01:13:19;;;;;;;364.90;108.03;;;;;;;5.60;64.05;100325.91;341196;29;1318;-71
2021/12/17 01:13:30;;;;;;;363.45;109.10;;;;;;;5.59;64.16;100329.38;339213;29;1966;-71
2021/12/17 01:13:41;;;;;;;364.98;110.88;;;;;;;5.60;63.84;100330.22;343331;28;1223;-71
2021/12/17 01:13:51;;;;;;;364.02;109.60;;;;;;;5.60;64.24;100332.84;342471;28;1398;-71
2021/12/17 01:14:02;;;;;;;362.90;107.40;;;;;;;5.59;63.88;100323.31;341048;28;1391;-71
2021/12/17 01:14:13;;;;;;;361.92;106.68;;;;;;;5.61;63.99;100327.63;338294;29;1747;-71
2021/12/17 01:14:24;;;;;;;362.05;106.45;;;;;;;5.59;63.83;100329.38;339778;29;1278;-71
2021/12/17 01:14:37;;;;;;;362.45;107.30;;;;;;;5.59;63.99;100324.19;339498;28;1287;-71
2021/12/17 01:14:48;;;;;;;361.83;106.93;;;;;;;5.60;64.05;100325.03;336865;28;1353;-71
2021/12/17 01:14:58;;;;;;;364.93;109.60;;;;;;;5.60;64.16;100327.63;338875;28;1420;-71
2021/12/17 01:15:10;;;;;;;363.75;107.05;;;;;;;5.57;64.12;100318.13;339569;28;1375;-71
2021/12/17 01:15:21;;;;;;;364.65;106.35;;;;;;;5.60;64.19;100330.22;342347;28;1329;-72
2021/12/17 01:15:31;;;;;;;362.87;107.33;;;;;;;5.59;64.00;100318.13;341980;28;987;-71
2021/12/17 01:15:41;;;;;;;361.52;106.45;;;;;;;5.61;63.88;100335.41;340059;28;1777;-71
2021/12/17 01:15:52;;;;;;;359.93;104.57;;;;;;;5.60;63.97;100325.91;339891;29;837;-71
2021/12/17 01:16:03;;;;;;;358.63;103.50;;;;;;;5.60;64.15;100331.09;340637;28;966;-71
2021/12/17 01:16:13;;;;;;;360.98;106.55;;;;;;;5.59;63.99;100319.00;340868;28;865;-72
2021/12/17 01:16:24;;;;;;;362.40;108.50;;;;;;;5.58;63.97;100322.47;341099;28;1001;-71
2021/12/17 01:16:34;;;;;;;362.90;108.35;;;;;;;5.58;63.79;100326.78;339655;29;1484;-71
2021/12/17 01:16:45;;;;;;;361.87;106.50;;;;;;;5.59;64.07;100326.78;339597;28;1303;-71
2021/12/17 01:16:56;;;;;;;359.60;104.88;;;;;;;5.60;63.81;100327.63;339463;29;1725;-71
2021/12/17 01:17:07;;;;;;;359.55;105.43;;;;;;;5.60;63.73;100328.50;339380;29;2399;-72
2021/12/17 01:17:19;;;;;;;359.25;105.22;;;;;;;5.58;64.08;100327.66;341838;28;1478;-72
2021/12/17 01:17:31;;;;;;;359.42;105.30;;;;;;;5.56;63.67;100324.22;339513;28;1545;-71
2021/12/17 01:17:44;;;;;;;360.77;106.25;;;;;;;5.57;63.67;100325.06;340775;28;1974;-71
2021/12/17 01:17:58;;;;;;;363.30;108.30;;;;;;;5.59;63.81;100325.91;338192;28;2000;-71
2021/12/17 01:18:13;;;;;;;363.90;110.20;;;;;;;5.56;63.79;100329.41;339116;28;937;-71
2021/12/17 01:18:34;;;;;;;362.67;107.63;;;;;;;5.58;64.07;100325.06;337222;29;870;-71
2021/12/17 01:24:44;;;;;;;360.88;105.25;;;;;;;5.63;63.31;100325.00;340899;28;742;-71
2021/12/17 01:25:01;;;;;;;358.05;101.70;;;;;;;5.61;63.65;100319.84;339776;28;894;-71
2021/12/17 01:25:19;;;;;;;358.33;102.75;;;;;;;5.61;63.58;100325.03;343674;28;1950;-72
2021/12/17 01:35:28;;;;;;;361.58;104.57;;;;;;;5.60;63.83;100309.47;341216;28;754;-72
2021/12/17 01:35:39;;;;;;;364.00;108.95;;;;;;;5.60;63.58;100315.50;342534;28;1464;-71
2021/12/17 01:35:50;;;;;;;361.08;106.45;;;;;;;5.60;63.53;100319.84;342104;28;1731;-71
2021/12/17 01:36:00;;;;;;;360.13;105.45;;;;;;;5.60;63.62;100310.31;341005;28;1270;-71
2021/12/17 01:36:10;;;;;;;360.10;106.50;;;;;;;5.61;63.45;100317.25;338561;28;1334;-72
2021/12/17 01:36:21;;;;;;;361.80;108.30;;;;;;;5.63;63.48;100318.06;337867;29;1746;-72
2021/12/17 01:36:31;;;;;;;362.80;108.57;;;;;;;5.63;63.35;100314.63;338425;28;2173;-72
2021/12/17 01:36:42;;;;;;;363.25;107.82;;;;;;;5.63;63.58;100315.47;337234;29;803;-72
2021/12/17 01:37:09;;;;;;;361.67;106.33;;;;;;;5.62;63.55;100310.31;338657;29;2042;-72
2021/12/17 01:40:46;;;;;;;361.33;107.93;;;;;;;5.51;64.09;100310.41;341094;28;861;-72
2021/12/17 01:41:37;;;;;;;362.65;110.43;;;;;;;5.52;64.22;100299.16;337086;29;1141;-71
2021/12/17 01:42:05;;;;;;;360.95;106.53;;;;;;;5.52;64.21;100316.47;340079;28;1588;-71
2021/12/17 01:42:16;;;;;;;360.60;105.13;;;;;;;5.53;64.35;100308.66;339716;28;1318;-71
2021/12/17 01:42:26;;;;;;;360.35;103.90;;;;;;;5.52;64.35;100312.13;338409;29;1288;-71
2021/12/17 01:42:36;;;;;;;359.90;104.40;;;;;;;5.52;64.09;100312.13;337285;29;1084;-71
2021/12/17 01:42:47;;;;;;;360.25;104.40;;;;;;;5.52;64.32;100312.13;337094;29;1530;-71
2021/12/17 01:42:58;;;;;;;361.63;107.27;;;;;;;5.52;64.07;100312.13;338585;29;1317;-71
2021/12/17 01:43:09;;;;;;;362.17;107.35;;;;;;;5.52;64.07;100306.94;341141;28;1253;-71
2021/12/17 01:43:20;;;;;;;362.60;107.72;;;;;;;5.50;63.99;100310.41;340276;28;1727;-71
2021/12/17 01:43:36;;;;;;;361.10;106.57;;;;;;;5.51;64.59;100315.59;338762;29;1091;-71
2021/12/17 01:43:48;;;;;;;359.52;105.80;;;;;;;5.52;64.17;100312.13;337379;29;957;-71
2021/12/17 01:43:58;;;;;;;361.45;108.97;;;;;;;5.53;64.31;100316.44;339940;29;1691;-71
2021/12/17 01:44:09;;;;;;;361.45;108.30;;;;;;;5.53;64.33;100316.44;339746;29;1298;-71
2021/12/17 01:44:20;;;;;;;359.88;105.30;;;;;;;5.54;64.09;100310.38;337001;29;1484;-71
2021/12/17 01:44:32;;;;;;;358.90;101.43;;;;;;;5.54;64.19;100314.72;341124;28;1272;-71
2021/12/17 01:44:43;;;;;;;360.92;104.88;;;;;;;5.54;64.08;100309.53;340926;28;881;-71
2021/12/17 01:44:53;;;;;;;362.33;107.70;;;;;;;5.52;64.30;100312.13;337060;28;1226;-71
2021/12/17 01:45:04;;;;;;;363.10;109.83;;;;;;;5.52;64.22;100322.50;336850;29;1378;-71
2021/12/17 01:45:15;;;;;;;362.23;108.20;;;;;;;5.53;63.94;100310.38;339921;29;846;-71
2021/12/17 01:45:30;;;;;;;361.83;106.53;;;;;;;5.54;64.50;100322.50;342148;28;2027;-71
2021/12/17 01:45:41;;;;;;;361.90;105.43;;;;;;;5.50;64.10;100313.00;339900;28;2058;-71
2021/12/17 01:45:53;;;;;;;361.88;106.15;;;;;;;5.51;64.18;100315.59;337508;29;1516;-71
2021/12/17 01:46:05;;;;;;;361.98;107.13;;;;;;;5.51;64.23;100320.78;338433;29;2034;-71
2021/12/17 01:46:21;;;;;;;361.48;107.03;;;;;;;5.52;64.51;100322.50;340059;28;1333;-71
2021/12/17 01:46:32;;;;;;;362.58;106.22;;;;;;;5.50;64.35;100313.88;340904;28;1345;-71
2021/12/17 01:46:44;;;;;;;363.20;108.00;;;;;;;5.50;64.48;100313.88;338357;29;1285;-71
2021/12/17 01:46:54;;;;;;;361.88;107.13;;;;;;;5.51;64.80;100319.94;339449;28;1735;-71
2021/12/17 01:47:09;;;;;;;359.13;105.47;;;;;;;5.49;64.74;100314.75;339756;28;1507;-71
2021/12/17 01:47:19;;;;;;;357.92;102.95;;;;;;;5.50;64.55;100318.22;337942;29;1718;-71
2021/12/17 01:47:29;;;;;;;359.00;102.80;;;;;;;5.50;64.51;100315.59;337017;29;1928;-71
2021/12/17 01:47:40;;;;;;;360.95;104.53;;;;;;;5.50;64.61;100319.06;338401;28;1648;-72
2021/12/17 01:47:50;;;;;;;361.40;105.77;;;;;;;5.50;64.39;100319.06;338971;29;1724;-71
2021/12/17 01:48:03;;;;;;;362.65;108.47;;;;;;;5.50;64.91;100321.66;338494;29;2003;-71
2021/12/17 01:48:18;;;;;;;361.17;106.57;;;;;;;5.48;64.68;100310.44;336994;29;1400;-71
2021/12/17 01:48:36;;;;;;;358.42;101.82;;;;;;;5.46;64.60;100322.56;338600;29;794;-71
2021/12/17 01:49:04;;;;;;;360.92;104.72;;;;;;;5.45;64.64;100318.25;341319;28;801;-71
2021/12/17 01:55:48;;;;;;;363.83;107.75;;;;;;;5.46;64.37;100307.00;340996;28;1160;-71
2021/12/17 01:56:57;;;;;;;364.85;108.57;;;;;;;5.38;65.18;100311.38;338417;29;2196;-71
2021/12/17 01:59:29;;;;;;;359.38;102.85;;;;;;;5.37;65.74;100307.06;338636;28;948;-70